Time;durP1;ratioP1;P1;durP2;ratioP2;P2;SDS_P1;SDS_P2;PMS_P1;PMS_P2;Temp;Humidity;BMP_temperature;BMP_pressure;BME280_temperature;BME280_humidity;BME280_pressure;Samples;Min_cycle;Max_cycle;Signal;HPM_P1;HPM_P2
2023/11/09 00:04:40;;;;;;;15.00;10.10;;;;;;;3.86;100.00;99287.38;430147;1274;140949;-60
2023/11/09 00:14:48;;;;;;;12.70;9.80;;;;;;;3.57;100.00;99292.17;430559;1274;140043;-59
2023/11/09 00:24:54;;;;;;;12.00;9.30;;;;;;;3.33;100.00;99297.11;430453;1269;139347;-61
2023/11/09 00:35:01;;;;;;;11.70;9.00;;;;;;;3.09;100.00;99297.15;430063;1270;140193;-61
2023/11/09 00:45:09;;;;;;;12.00;9.60;;;;;;;2.91;100.00;99293.15;430395;1273;139361;-61
2023/11/09 00:55:15;;;;;;;14.90;11.20;;;;;;;2.69;100.00;99287.20;430542;1271;139302;-61
2023/11/09 01:05:23;;;;;;;12.10;10.80;;;;;;;2.48;100.00;99277.23;430143;1273;140341;-60
2023/11/09 01:15:30;;;;;;;12.90;10.00;;;;;;;2.28;100.00;99278.27;430363;1275;140548;-60
2023/11/09 01:25:36;;;;;;;13.60;12.20;;;;;;;2.09;100.00;99277.02;430623;1273;141266;-62
2023/11/09 01:35:42;;;;;;;16.70;11.90;;;;;;;1.95;100.00;99271.09;430375;1274;140113;-60
2023/11/09 01:45:51;;;;;;;14.10;12.40;;;;;;;1.85;100.00;99264.35;430671;1270;140595;-60
2023/11/09 01:55:58;;;;;;;14.40;12.60;;;;;;;1.76;100.00;99270.17;430272;1269;139650;-60
2023/11/09 02:06:04;;;;;;;14.30;12.00;;;;;;;1.63;100.00;99262.13;429845;1274;140367;-60
2023/11/09 02:16:11;;;;;;;12.80;10.80;;;;;;;1.57;100.00;99260.42;431068;1274;139996;-59
2023/11/09 02:26:17;;;;;;;11.80;10.60;;;;;;;1.56;100.00;99268.75;429800;1274;139616;-60
2023/11/09 02:36:24;;;;;;;9.50;7.40;;;;;;;1.57;100.00;99271.48;429719;1273;141136;-60
2023/11/09 02:46:31;;;;;;;14.10;10.80;;;;;;;1.55;100.00;99272.56;429995;1270;142339;-60
2023/11/09 02:56:38;;;;;;;8.80;7.60;;;;;;;1.55;100.00;99262.56;430249;1271;140246;-61
2023/11/09 03:06:44;;;;;;;12.60;9.20;;;;;;;1.62;100.00;99267.00;430648;1270;139222;-62
2023/11/09 03:16:50;;;;;;;10.60;8.90;;;;;;;1.66;100.00;99272.20;430682;1274;139450;-60
2023/11/09 03:26:56;;;;;;;10.20;7.70;;;;;;;1.68;100.00;99263.70;430031;1270;140694;-60
2023/11/09 03:37:02;;;;;;;12.20;9.80;;;;;;;1.65;100.00;99260.50;429749;1273;140657;-60
2023/11/09 03:47:09;;;;;;;13.00;9.80;;;;;;;1.59;100.00;99263.11;429935;1274;140968;-60
2023/11/09 03:57:16;;;;;;;9.00;8.10;;;;;;;1.53;100.00;99259.49;430764;1270;140541;-60
2023/11/09 04:07:22;;;;;;;11.00;9.00;;;;;;;1.50;100.00;99252.55;431350;1271;140180;-59
2023/11/09 04:17:28;;;;;;;14.50;8.90;;;;;;;1.42;100.00;99243.13;429454;1275;139371;-60
2023/11/09 04:27:36;;;;;;;11.70;8.90;;;;;;;1.34;100.00;99235.61;429689;1274;162071;-60
2023/11/09 04:37:44;;;;;;;13.70;11.10;;;;;;;1.25;100.00;99222.95;429699;1273;139200;-60
2023/11/09 04:47:55;;;;;;;11.40;9.00;;;;;;;1.15;100.00;99220.48;431279;1272;140137;-60
2023/11/09 05:08:28;;;;;;;12.20;10.60;;;;;;;1.16;100.00;99201.20;429763;1275;139360;-61
2023/11/09 05:18:34;;;;;;;17.00;8.70;;;;;;;1.14;100.00;99190.73;430392;1273;141058;-61
2023/11/09 05:28:40;;;;;;;12.20;10.40;;;;;;;1.10;100.00;99184.30;430123;1270;140457;-60
2023/11/09 05:38:47;;;;;;;12.60;9.70;;;;;;;1.04;100.00;99178.45;430207;1269;141067;-60
2023/11/09 05:48:54;;;;;;;16.10;10.80;;;;;;;1.04;100.00;99183.95;430148;1270;139514;-60
2023/11/09 05:59:00;;;;;;;15.70;11.90;;;;;;;1.05;100.00;99196.19;431652;1271;139689;-60
2023/11/09 06:09:07;;;;;;;13.30;10.40;;;;;;;1.12;100.00;99195.59;430686;1274;139908;-60
2023/11/09 06:19:14;;;;;;;13.80;10.80;;;;;;;1.33;100.00;99178.38;430361;1276;141041;-60
2023/11/09 06:29:21;;;;;;;11.90;9.10;;;;;;;1.66;100.00;99181.46;430106;1275;140717;-60
2023/11/09 06:39:26;;;;;;;;;;;;;;;2.12;100.00;99181.08;430878;1270;139445;-61
2023/11/09 06:49:33;;;;;;;13.00;9.50;;;;;;;2.95;100.00;99176.08;430281;1273;126004;-61
2023/11/09 06:59:39;;;;;;;8.10;6.90;;;;;;;5.49;100.00;99163.70;429838;1275;169838;-61
2023/11/09 07:09:47;;;;;;;9.00;7.30;;;;;;;7.91;100.00;99160.55;431446;1271;140316;-66
2023/11/09 07:19:53;;;;;;;10.30;7.90;;;;;;;7.77;100.00;99167.48;430954;1275;139501;-64
2023/11/09 07:29:59;;;;;;;9.60;8.50;;;;;;;8.95;100.00;99167.07;430585;1272;140471;-66
2023/11/09 07:40:09;;;;;;;8.40;7.00;;;;;;;12.55;100.00;99147.86;430541;1276;140695;-68
2023/11/09 07:50:17;;;;;;;8.60;6.70;;;;;;;14.22;100.00;99151.77;430252;1273;139509;-68
2023/11/09 08:00:23;;;;;;;7.80;6.50;;;;;;;13.30;99.41;99156.59;430273;1274;139348;-64
2023/11/09 08:10:29;;;;;;;11.00;7.00;;;;;;;13.70;98.00;99157.99;430644;1274;139127;-67
2023/11/09 08:20:36;;;;;;;7.50;6.20;;;;;;;16.56;96.53;99150.96;430811;1269;139115;-70
2023/11/09 08:30:43;;;;;;;7.30;5.20;;;;;;;19.76;90.62;99138.55;430337;1273;138545;-60
2023/11/09 08:40:51;;;;;;;6.60;5.00;;;;;;;21.88;83.76;99134.55;432982;1270;138972;-69
2023/11/09 08:51:00;;;;;;;8.30;5.00;;;;;;;23.70;79.10;99118.43;433301;1273;138533;-73
2023/11/09 09:01:16;;;;;;;6.40;5.70;;;;;;;24.93;74.03;99096.75;433355;1275;138354;-79
2023/11/09 09:11:23;;;;;;;7.20;5.30;;;;;;;25.11;68.81;99084.68;432930;1273;138791;-67
2023/11/09 09:21:30;;;;;;;9.00;5.70;;;;;;;24.39;65.40;99087.47;430346;1275;138924;-70
2023/11/09 09:31:36;;;;;;;5.90;3.80;;;;;;;21.62;63.04;99080.86;430398;1276;138516;-69
2023/11/09 09:41:50;;;;;;;5.30;4.00;;;;;;;17.49;57.44;99071.11;430057;1275;139042;-70
2023/11/09 09:52:01;;;;;;;9.70;4.10;;;;;;;14.75;59.38;99066.48;432344;1270;139337;-72
2023/11/09 10:02:10;;;;;;;11.10;4.30;;;;;;;13.09;61.85;99061.61;430638;1275;138723;-72
2023/11/09 10:12:16;;;;;;;8.10;4.00;;;;;;;12.23;63.67;99047.30;433849;1274;138831;-72
2023/11/09 10:22:23;;;;;;;5.40;3.10;;;;;;;11.62;65.10;99031.84;432854;1274;138524;-67
2023/11/09 10:32:31;;;;;;;5.90;2.80;;;;;;;11.25;66.00;99030.96;430625;1274;138584;-66
2023/11/09 10:42:39;;;;;;;8.50;3.00;;;;;;;11.01;66.53;99018.04;430287;1272;139597;-67
2023/11/09 10:52:58;;;;;;;4.80;2.00;;;;;;;10.83;66.71;99006.42;430162;1274;141299;-63
2023/11/09 11:03:09;;;;;;;;;;;;;;;10.74;67.02;99001.45;430925;1276;138940;-63
2023/11/09 11:13:18;;;;;;;5.00;2.70;;;;;;;10.90;67.18;98992.29;430428;1275;125242;-63
2023/11/09 11:24:00;;;;;;;4.10;2.40;;;;;;;11.27;67.56;98984.72;430167;1274;139321;-63
2023/11/09 11:34:07;;;;;;;4.50;2.50;;;;;;;11.42;66.89;98976.23;429995;1275;139000;-66
2023/11/09 11:44:38;;;;;;;5.60;2.80;;;;;;;11.41;66.76;98964.73;424212;1294;600544;-65
2023/11/09 11:54:54;;;;;;;3.60;2.50;;;;;;;11.31;66.37;98963.77;432111;1266;219465;-65
2023/11/09 12:05:02;;;;;;;2.80;2.30;;;;;;;11.26;66.17;98956.79;433170;1266;137679;-69
2023/11/09 12:15:10;;;;;;;4.40;1.80;;;;;;;11.20;65.93;98948.25;436830;1262;137843;-67
2023/11/09 12:25:16;;;;;;;3.10;2.80;;;;;;;11.14;66.16;98933.72;433902;1259;137255;-77
2023/11/09 12:35:22;;;;;;;4.00;2.70;;;;;;;11.09;66.36;98912.21;436871;1260;139096;-79
2023/11/09 12:45:29;;;;;;;7.60;2.80;;;;;;;11.12;66.76;98895.09;436801;1260;137615;-65
2023/11/09 12:55:37;;;;;;;4.80;2.40;;;;;;;11.16;66.66;98893.94;433573;1262;137870;-63
2023/11/09 13:05:42;;;;;;;;;;;;;;;11.17;66.81;98880.70;433751;1260;137628;-63
2023/11/09 13:15:49;;;;;;;3.90;1.90;;;;;;;11.13;66.98;98871.42;433422;1262;124850;-65
2023/11/09 13:25:58;;;;;;;4.00;2.00;;;;;;;11.11;67.01;98868.27;433727;1262;137683;-62
2023/11/09 13:36:08;;;;;;;2.90;1.40;;;;;;;11.05;66.82;98875.31;435074;1259;137622;-62
2023/11/09 13:46:14;;;;;;;3.00;2.40;;;;;;;10.95;66.58;98876.27;434820;1257;137993;-68
2023/11/09 13:57:03;;;;;;;2.50;1.70;;;;;;;10.79;66.78;98871.41;435085;1258;138516;-73
2023/11/09 14:06:54;;;;;;;4.40;1.80;;;;;;;10.56;66.83;98863.61;435229;1259;137522;-64
2023/11/09 14:17:03;;;;;;;4.30;3.10;;;;;;;10.26;67.16;98858.15;435025;1257;137705;-62
2023/11/09 14:27:13;;;;;;;5.30;3.20;;;;;;;9.92;67.64;98862.39;435140;1257;137646;-65
2023/11/09 14:37:19;;;;;;;7.30;3.80;;;;;;;9.57;68.10;98860.64;435164;1256;137693;-63
2023/11/09 14:47:34;;;;;;;5.40;3.90;;;;;;;9.27;68.66;98853.52;435826;1256;138629;-64
2023/11/09 14:57:41;;;;;;;9.30;4.30;;;;;;;8.91;69.07;98846.58;436518;1254;137551;-66
2023/11/09 15:07:48;;;;;;;7.70;5.40;;;;;;;8.54;69.60;98840.48;438936;1257;138877;-68
2023/11/09 15:17:58;;;;;;;6.90;5.70;;;;;;;8.23;70.34;98838.55;436678;1254;137760;-74
2023/11/09 15:28:07;;;;;;;9.50;5.80;;;;;;;8.02;71.59;98836.93;436745;1256;138593;-68
2023/11/09 15:38:13;;;;;;;10.40;7.10;;;;;;;7.93;72.00;98834.91;435579;1256;137327;-59
2023/11/09 15:48:20;;;;;;;12.30;7.30;;;;;;;7.70;72.23;98824.89;435421;1257;138191;-61
2023/11/09 15:58:28;;;;;;;9.70;6.10;;;;;;;7.49;72.70;98818.17;435029;1255;138210;-60
2023/11/09 16:08:34;;;;;;;14.70;7.60;;;;;;;7.34;73.31;98807.31;435300;1257;138211;-61
2023/11/09 16:18:41;;;;;;;14.70;9.50;;;;;;;7.21;74.27;98800.95;434943;1254;138811;-60
2023/11/09 16:28:48;;;;;;;12.10;8.50;;;;;;;7.05;74.83;98807.16;434944;1257;139896;-60
2023/11/09 16:38:55;;;;;;;12.90;8.50;;;;;;;6.85;75.60;98805.41;435470;1257;138419;-61
2023/11/09 16:49:02;;;;;;;11.40;8.50;;;;;;;6.71;76.56;98813.39;435616;1257;138271;-61
2023/11/09 16:59:12;;;;;;;11.30;8.90;;;;;;;6.64;77.38;98804.06;435883;1254;138637;-59
2023/11/09 17:09:19;;;;;;;16.70;10.50;;;;;;;6.57;77.90;98799.24;434971;1257;138389;-60
2023/11/09 17:19:25;;;;;;;14.20;9.80;;;;;;;6.51;78.80;98796.64;439292;1256;138926;-59
2023/11/09 17:29:31;;;;;;;14.00;10.80;;;;;;;6.48;79.34;98785.75;435504;1257;139204;-60
2023/11/09 17:39:40;;;;;;;16.20;10.00;;;;;;;6.45;79.92;98791.27;435419;1254;142144;-60
2023/11/09 17:49:48;;;;;;;13.00;9.20;;;;;;;6.41;80.46;98780.74;435468;1254;138387;-60
2023/11/09 17:59:55;;;;;;;13.50;9.70;;;;;;;6.43;81.11;98775.04;435563;1253;138507;-61
2023/11/09 18:10:01;;;;;;;13.00;9.00;;;;;;;6.46;81.49;98764.95;435326;1254;139404;-60
2023/11/09 18:20:10;;;;;;;12.40;8.50;;;;;;;6.48;82.07;98757.38;435585;1254;138256;-59
2023/11/09 18:30:17;;;;;;;11.30;8.90;;;;;;;6.50;82.59;98744.73;435687;1254;139335;-60
2023/11/09 18:40:24;;;;;;;12.80;8.80;;;;;;;6.55;82.94;98736.80;435724;1256;139569;-59
2023/11/09 18:50:30;;;;;;;13.30;8.40;;;;;;;6.61;83.13;98730.52;437074;1254;139572;-61
2023/11/09 19:00:39;;;;;;;10.60;6.90;;;;;;;6.69;83.59;98721.32;436116;1257;139563;-60
2023/11/09 19:10:46;;;;;;;11.40;7.20;;;;;;;6.77;84.00;98715.45;435511;1253;138703;-59
2023/11/09 19:20:54;;;;;;;11.40;7.00;;;;;;;6.86;84.21;98708.42;436548;1257;138165;-61
2023/11/09 19:31:05;;;;;;;10.00;7.60;;;;;;;6.90;84.12;98708.18;435680;1252;139185;-60
2023/11/09 19:41:13;;;;;;;10.90;8.40;;;;;;;6.91;84.34;98701.91;435848;1257;139305;-59
2023/11/09 19:51:19;;;;;;;14.20;7.30;;;;;;;6.92;84.56;98693.83;435491;1254;140785;-60
2023/11/09 20:01:27;;;;;;;7.80;5.60;;;;;;;6.89;84.51;98698.53;435736;1256;138477;-61
2023/11/09 20:11:33;;;;;;;6.40;5.70;;;;;;;6.83;84.54;98689.28;436315;1257;138776;-60
2023/11/09 20:21:40;;;;;;;8.00;5.90;;;;;;;6.76;84.89;98690.60;435042;1253;140218;-60
2023/11/09 20:31:46;;;;;;;7.30;6.50;;;;;;;6.71;85.24;98687.12;435303;1256;138576;-61
2023/11/09 20:41:53;;;;;;;8.20;7.20;;;;;;;6.66;85.32;98683.58;434821;1253;139120;-61
2023/11/09 20:52:00;;;;;;;12.00;7.20;;;;;;;6.61;85.68;98671.54;437704;1254;139256;-61
2023/11/09 21:02:06;;;;;;;12.80;8.30;;;;;;;6.55;85.89;98661.27;435685;1257;138305;-60
2023/11/09 21:12:15;;;;;;;11.60;7.60;;;;;;;6.45;86.05;98645.95;436225;1252;139083;-60
2023/11/09 21:22:28;;;;;;;10.80;8.50;;;;;;;6.38;86.47;98639.60;435076;1254;138639;-60
2023/11/09 21:32:34;;;;;;;14.90;10.60;;;;;;;6.29;86.63;98641.67;435364;1253;138199;-61
2023/11/09 21:42:41;;;;;;;9.90;7.90;;;;;;;6.22;86.94;98640.92;435235;1256;139100;-60
2023/11/09 21:52:47;;;;;;;14.00;9.00;;;;;;;6.16;87.11;98638.11;435008;1257;139871;-61
2023/11/09 22:02:54;;;;;;;15.00;10.50;;;;;;;6.11;87.09;98639.13;436217;1252;139019;-60
2023/11/09 22:13:00;;;;;;;12.20;9.80;;;;;;;5.92;86.94;98633.65;435120;1253;139670;-60
2023/11/09 22:23:08;;;;;;;16.80;10.90;;;;;;;5.68;87.02;98634.67;435816;1254;138534;-61
2023/11/09 22:33:17;;;;;;;15.80;10.70;;;;;;;5.43;87.06;98632.31;435534;1256;139808;-60
2023/11/09 22:43:24;;;;;;;28.30;15.40;;;;;;;5.17;87.25;98637.82;435382;1254;139461;-60
2023/11/09 22:53:31;;;;;;;24.00;14.50;;;;;;;4.94;87.63;98641.84;436008;1254;138848;-60
2023/11/09 23:03:37;;;;;;;15.70;12.20;;;;;;;4.75;88.11;98636.47;435713;1257;138438;-61
2023/11/09 23:13:44;;;;;;;21.30;17.40;;;;;;;4.58;88.34;98645.73;435616;1256;138496;-61
2023/11/09 23:23:50;;;;;;;17.30;13.20;;;;;;;4.39;88.76;98641.67;435024;1254;138421;-60
2023/11/09 23:33:57;;;;;;;14.00;11.90;;;;;;;4.21;89.23;98641.78;435048;1254;140035;-60
2023/11/09 23:44:09;;;;;;;17.30;12.60;;;;;;;4.05;89.69;98632.04;435905;1257;139452;-60
2023/11/09 23:54:16;;;;;;;19.80;12.10;;;;;;;3.91;90.50;98617.55;435395;1252;145928;-61
